Date,TemperatureHighF,TemperatureAvgF,TemperatureLowF,DewpointHighF,DewpointAvgF,DewpointLowF,HumidityHigh,HumidityAvg,HumidityLow,PressureMaxIn,PressureMinIn,WindSpeedMaxMPH,WindSpeedAvgMPH,GustSpeedMaxMPH,PrecipitationSumIn
2013-1-1,83.0,66.9,54.0,63.0,58.7,53.0,97,78,47,0.00,40.00,6,2,17,0.00
2013-1-2,83.0,65.7,54.0,68.0,60.2,53.0,98,85,55,0.00,40.00,5,1,11,0.00
2013-1-3,84.0,68.2,59.0,70.0,61.8,58.0,98,84,43,0.00,40.00,7,2,13,0.00
2013-1-4,84.0,70.1,62.0,69.0,65.4,61.0,98,87,57,0.00,40.00,4,2,9,0.00
2013-1-5,81.0,68.8,63.0,67.0,64.1,62.0,97,86,62,0.00,40.00,4,2,10,0.00
2013-1-6,84.0,70.1,61.0,71.0,65.7,60.0,98,88,55,0.00,40.00,3,1,10,0.00
2013-1-7,79.0,70.5,64.0,69.0,66.2,63.0,98,88,67,0.00,40.00,5,2,12,0.00
2013-1-8,86.0,73.7,67.0,70.0,67.0,64.0,96,81,52,0.00,40.00,4,3,16,0.00
2013-1-9,86.0,73.4,65.0,71.0,66.8,64.0,97,82,49,0.00,40.00,6,2,14,0.00
2013-1-10,86.0,73.0,65.0,69.0,64.4,60.0,97,77,42,0.00,40.00,6,3,16,0.00
2013-1-11,84.0,68.9,58.0,68.0,61.7,57.0,97,81,47,0.00,40.00,4,2,11,0.00
2013-1-12,86.0,69.6,59.0,69.0,63.2,58.0,97,83,50,0.00,40.00,4,1,12,0.00
2013-1-13,84.0,67.1,58.0,68.0,61.3,57.0,98,85,55,0.00,40.00,4,1,12,0.00
2013-1-14,82.0,67.0,57.0,65.0,59.7,56.0,97,81,50,0.00,40.00,4,1,14,0.00
2013-1-15,83.0,67.9,55.0,67.0,60.8,54.0,97,81,50,0.00,40.00,4,1,10,0.00
2013-1-16,84.0,67.8,54.0,68.0,60.2,53.0,97,80,45,0.00,40.00,5,2,12,0.00
2013-1-17,83.0,68.0,60.0,70.0,61.0,49.0,97,80,49,0.00,40.00,7,3,16,0.00
2013-1-18,69.0,57.5,51.0,56.0,48.9,40.0,96,74,51,0.00,40.00,5,2,12,0.00
2013-1-19,75.0,65.9,58.0,63.0,60.4,56.0,96,84,64,0.00,40.00,4,2,10,0.00
2013-1-20,81.0,69.1,61.0,66.0,63.8,60.0,97,85,55,0.00,40.00,4,1,8,0.00
2013-1-21,78.0,67.9,59.0,67.0,63.6,58.0,97,87,64,0.00,40.00,4,2,13,0.00
2013-1-22,73.0,62.1,53.0,58.0,52.7,45.0,97,74,48,0.00,40.00,5,3,12,0.00
2013-1-23,75.0,59.5,52.0,51.0,46.7,41.0,91,65,35,0.00,40.00,5,3,12,0.00
2013-1-24,78.0,58.0,46.0,50.0,45.2,41.0,96,70,27,0.00,40.00,5,2,10,0.00
2013-1-25,79.0,56.6,42.0,56.0,48.1,41.0,97,78,37,0.00,40.00,4,1,9,0.00
2013-1-26,80.0,59.1,45.0,54.0,47.5,43.0,97,72,27,0.00,40.00,4,1,11,0.00
2013-1-27,83.0,65.0,49.0,61.0,54.5,48.0,97,73,41,0.00,40.00,5,2,11,0.00
2013-1-28,85.0,68.3,56.0,63.0,58.7,55.0,97,75,43,0.00,40.00,5,2,12,0.00
2013-1-29,86.0,69.7,58.0,69.0,61.8,57.0,97,79,45,0.00,40.00,6,2,14,0.00
2013-1-30,84.0,69.0,58.0,68.0,61.4,57.0,97,80,50,0.00,40.00,8,3,20,0.00
2013-1-31,70.0,61.1,49.0,60.0,52.0,37.0,97,73,51,0.00,40.00,4,3,12,0.05
2013-2-1,73.0,54.4,38.0,46.0,39.3,35.0,92,61,26,0.00,40.00,6,3,15,0.01
2013-2-2,78.0,58.9,41.0,54.0,44.0,38.0,96,64,32,0.00,40.00,5,2,15,0.00
2013-2-3,76.0,58.5,44.0,47.0,39.6,30.0,96,61,19,0.00,40.00,5,2,12,0.00
2013-2-4,76.0,57.0,36.0,54.0,42.6,28.0,96,68,19,0.00,40.00,4,1,10,0.00
2013-2-5,82.0,61.1,42.0,59.0,50.2,41.0,96,72,39,0.00,40.00,4,1,11,0.00
2013-2-6,85.0,67.3,51.0,64.0,57.6,50.0,97,75,42,0.00,40.00,3,1,9,0.00
2013-2-7,84.0,67.1,55.0,68.0,58.3,54.0,97,78,43,0.00,40.00,6,2,13,0.00
2013-2-8,85.0,69.9,57.0,70.0,61.3,51.0,97,77,31,0.00,40.00,5,3,17,0.00
2013-2-9,82.0,66.5,53.0,63.0,58.5,52.0,97,78,48,0.00,40.00,5,3,13,0.00
2013-2-10,85.0,70.6,57.0,61.0,59.3,56.0,95,71,40,0.00,40.00,6,3,14,0.00
2013-2-11,81.0,67.0,55.0,68.0,61.0,54.0,97,83,55,0.00,40.00,5,2,12,0.00
2013-2-12,84.0,66.3,54.0,68.0,61.1,53.0,97,86,58,0.00,40.00,6,2,15,0.00
2013-2-13,85.0,71.3,59.0,71.0,65.4,58.0,98,84,55,0.00,40.00,7,3,21,0.00
2013-2-14,79.0,66.1,59.0,71.0,63.4,56.0,97,91,71,0.00,40.00,7,4,28,1.66
2013-2-15,66.0,62.5,59.0,64.0,60.9,56.0,97,94,90,0.00,40.00,3,1,9,0.22
2013-2-16,71.0,62.9,50.0,61.0,53.7,47.0,97,75,45,0.00,40.00,8,3,19,0.01
2013-2-17,60.0,48.8,34.0,47.0,30.4,21.0,95,56,23,0.00,40.00,7,3,16,0.01
2013-2-18,72.0,49.4,32.0,51.0,39.7,30.0,95,74,36,0.00,40.00,6,2,18,0.00
2013-2-19,81.0,61.2,46.0,63.0,54.3,45.0,97,81,50,0.00,40.00,5,1,12,0.00
2013-2-20,83.0,65.6,53.0,65.0,56.3,52.0,97,77,39,0.00,40.00,4,1,9,0.00
2013-2-21,85.0,67.1,56.0,67.0,60.3,55.0,97,82,48,0.00,40.00,5,2,11,0.00
2013-2-22,87.0,69.4,55.0,72.0,62.6,54.0,97,82,51,0.00,40.00,6,2,14,0.00
2013-2-23,84.0,72.1,62.0,73.0,66.9,61.0,98,85,62,0.00,40.00,7,2,18,0.00
2013-2-24,87.0,73.7,63.0,74.0,65.9,62.0,98,80,46,0.00,40.00,6,2,13,0.00
2013-2-25,85.0,71.3,60.0,73.0,65.9,59.0,98,85,55,0.00,40.00,6,2,14,0.00
2013-2-26,85.0,75.1,68.0,72.0,69.7,67.0,97,84,63,0.00,40.00,10,4,25,0.00
2013-2-27,73.0,67.1,62.0,70.0,63.6,61.0,97,89,69,0.00,40.00,4,1,8,0.20
2013-2-28,74.0,62.8,58.0,61.0,56.1,48.0,97,81,40,0.00,40.00,3,2,9,0.14
2013-3-1,65.0,59.8,54.0,58.0,52.5,47.0,95,78,53,0.00,40.00,4,1,9,0.02
2013-3-2,66.0,55.7,47.0,51.0,43.3,38.0,93,65,43,0.00,40.00,7,2,15,0.01
2013-3-3,64.0,50.7,41.0,49.0,43.8,40.0,96,80,43,0.00,40.00,7,2,21,0.11
2013-3-4,72.0,50.2,32.0,47.0,37.5,31.0,96,70,26,0.00,40.00,6,2,12,0.01
2013-3-5,78.0,55.9,36.0,53.0,45.1,35.0,96,73,34,0.00,40.00,6,2,15,0.00
2013-3-6,77.0,58.0,42.0,64.0,47.5,35.0,97,73,27,0.00,40.00,7,3,18,0.01
2013-3-7,71.0,52.0,36.0,44.0,38.6,34.0,94,67,28,0.00,40.00,5,2,13,0.01
2013-3-8,80.0,57.0,37.0,50.0,42.7,36.0,96,68,24,0.00,40.00,4,2,10,0.00
2013-3-9,80.0,59.9,41.0,54.0,47.5,40.0,96,70,30,0.00,40.00,4,1,12,0.00
2013-3-10,80.0,65.6,49.0,58.0,52.5,47.0,96,67,38,0.00,40.00,6,3,16,0.00
2013-3-11,81.0,65.9,51.0,62.0,56.3,50.0,97,75,44,0.00,40.00,6,2,16,0.00
2013-3-12,77.0,66.9,57.0,67.0,62.1,56.0,97,85,64,0.00,40.00,8,3,18,0.00
2013-3-13,79.0,60.3,47.0,58.0,46.0,37.0,96,67,22,0.00,40.00,6,3,14,0.00
2013-3-14,75.0,56.2,44.0,47.0,38.7,26.0,95,61,17,0.00,40.00,6,3,15,0.00
2013-3-15,76.0,54.5,39.0,44.0,38.1,31.0,96,64,20,0.00,40.00,5,2,13,0.00
2013-3-16,82.0,58.2,40.0,54.0,44.7,39.0,96,69,25,0.00,40.00,5,1,11,0.00
2013-3-17,82.0,63.0,45.0,59.0,52.8,44.0,97,74,42,0.00,40.00,5,2,12,0.00
2013-3-18,81.0,66.7,56.0,70.0,62.8,55.0,97,89,60,0.00,40.00,5,2,15,0.57
2013-3-19,83.0,70.2,60.0,68.0,64.7,59.0,97,84,56,0.00,40.00,6,2,13,0.18
2013-3-20,87.0,66.8,56.0,67.0,58.5,53.0,97,79,32,0.00,40.00,7,2,15,0.07
2013-3-21,78.0,64.3,50.0,62.0,52.5,42.0,97,72,29,0.00,40.00,5,2,12,0.07
2013-3-22,83.0,63.8,47.0,69.0,57.4,46.0,97,82,58,0.00,40.00,7,2,15,0.01
2013-3-23,87.0,74.9,65.0,72.0,66.4,63.0,97,78,45,0.00,40.00,9,3,21,0.00
2013-3-24,84.0,74.6,63.0,73.0,69.1,62.0,97,84,63,0.00,40.00,10,5,24,0.14
2013-3-25,81.0,71.0,57.0,72.0,55.3,27.0,97,64,20,0.00,40.00,5,3,13,0.15
2013-3-26,69.0,56.8,41.0,45.0,38.8,34.0,88,54,29,0.00,40.00,7,4,18,0.00
2013-3-27,69.0,49.4,35.0,40.0,33.8,30.0,95,65,23,0.00,40.00,6,2,16,0.00
2013-3-28,76.0,65.1,46.0,42.0,35.4,29.0,86,41,18,0.00,40.00,4,2,12,0.00
2013-3-29,79.0,57.1,37.0,49.0,41.1,36.0,96,64,24,0.00,40.00,5,2,12,0.00
2013-3-30,81.0,62.3,45.0,55.0,50.1,44.0,96,70,34,0.00,40.00,4,2,11,0.00
2013-3-31,84.0,67.1,49.0,61.0,54.3,-99.9,96,72,42,0.00,40.00,6,2,16,0.00
2013-4-1,85.0,67.9,55.0,69.0,59.7,54.0,97,79,43,0.00,40.00,6,2,17,0.00
2013-4-2,88.0,70.4,58.0,69.0,60.9,57.0,98,76,37,0.00,40.00,5,2,12,0.00
2013-4-3,89.0,72.7,59.0,70.0,62.9,58.0,97,76,39,0.00,40.00,7,2,17,0.00
2013-4-4,83.0,69.4,64.0,71.0,65.9,63.0,97,90,64,0.00,40.00,7,2,17,0.28
2013-4-5,72.0,66.8,58.0,68.0,64.3,55.0,97,92,82,0.00,40.00,6,3,17,0.78
2013-4-6,81.0,66.4,56.0,60.0,57.0,55.0,97,75,48,0.00,40.00,5,2,12,0.01
2013-4-7,86.0,68.3,55.0,66.0,58.5,54.0,97,75,37,0.00,40.00,5,2,11,0.00
2013-4-8,87.0,70.8,57.0,64.0,59.1,56.0,97,71,36,0.00,40.00,5,2,11,0.00
2013-4-9,87.0,70.9,55.0,66.0,60.8,54.0,97,74,41,0.00,40.00,5,2,13,0.00
2013-4-10,87.0,72.7,61.0,72.0,66.6,60.0,97,83,52,0.00,40.00,5,2,15,0.02
2013-4-11,85.0,74.5,65.0,75.0,68.9,64.0,97,84,59,0.00,40.00,5,2,17,0.05
2013-4-12,89.0,78.1,70.0,74.0,70.6,67.0,97,80,50,0.00,40.00,7,3,18,0.04
2013-4-13,90.0,78.4,68.0,72.0,69.4,66.0,97,77,47,0.00,40.00,7,2,12,0.00
2013-4-14,90.0,76.8,64.0,75.0,68.8,63.0,97,79,53,0.00,40.00,7,2,16,0.00
2013-4-15,93.0,77.7,67.0,73.0,68.9,64.0,96,77,47,0.00,40.00,5,2,12,0.00
2013-4-16,93.0,77.6,65.0,72.0,68.3,64.0,97,76,44,0.00,40.00,7,2,15,0.00
2013-4-17,88.0,76.8,65.0,69.0,66.7,62.0,96,73,48,0.00,40.00,6,3,13,0.00
2013-4-18,90.0,76.0,63.0,70.0,66.3,62.0,96,75,47,0.00,40.00,6,2,12,0.00
2013-4-19,92.0,76.8,65.0,72.0,68.0,64.0,97,78,47,0.00,40.00,7,3,16,0.00
2013-4-20,91.0,76.6,65.0,74.0,68.7,64.0,97,80,48,0.00,40.00,4,2,12,0.01
2013-4-21,88.0,73.2,66.0,71.0,68.0,64.0,96,85,53,0.00,40.00,4,3,16,0.13
2013-4-22,85.0,72.4,67.0,71.0,68.2,66.0,96,87,61,0.00,40.00,4,2,9,0.24
2013-4-23,87.0,74.1,64.0,68.0,64.1,60.0,97,74,47,0.00,40.00,6,3,14,0.03
2013-4-24,89.0,72.5,55.0,67.0,60.5,54.0,96,71,36,0.00,40.00,4,2,11,0.00
2013-4-25,89.0,72.3,57.0,66.0,58.7,54.0,96,68,30,0.00,40.00,5,2,13,0.00
2013-4-26,88.0,71.1,55.0,64.0,59.1,54.0,96,71,41,0.00,40.00,7,2,14,0.00
2013-4-27,88.0,71.9,57.0,63.0,58.5,55.0,96,68,33,0.00,40.00,6,3,18,0.00
2013-4-28,87.0,73.0,62.0,65.0,60.3,-99.9,96,72,42,0.00,40.00,6,2,14,0.00
2013-4-29,86.0,70.2,58.0,69.0,63.2,57.0,96,81,51,0.00,40.00,5,2,12,0.72
2013-4-30,88.0,75.6,64.0,73.0,66.9,63.0,97,77,51,0.00,40.00,6,2,16,0.35
2013-5-1,84.0,70.1,62.0,74.0,67.1,61.0,97,91,65,0.00,40.00,4,1,9,0.28
2013-5-2,73.0,68.1,64.0,70.0,66.9,63.0,97,96,87,0.00,40.00,2,1,6,0.42
2013-5-3,87.0,72.4,62.0,69.0,64.2,61.0,97,79,46,0.00,40.00,6,2,16,0.01
2013-5-4,84.0,72.3,60.0,69.0,63.7,59.0,97,76,54,0.00,40.00,7,3,19,0.01
2013-5-5,82.0,67.7,58.0,62.0,57.5,54.0,96,74,38,0.00,40.00,4,2,13,0.00
2013-5-6,81.0,66.0,50.0,62.0,56.7,49.0,96,75,51,0.00,40.00,6,2,14,0.00
2013-5-7,82.0,64.8,53.0,60.0,56.7,52.0,96,78,44,0.00,40.00,7,2,17,0.00
2013-5-8,86.0,67.7,51.0,65.0,55.5,50.0,96,71,34,0.00,40.00,7,2,16,0.00
2013-5-9,88.0,67.6,50.0,63.0,57.5,49.0,96,75,40,0.00,40.00,4,1,12,0.00
2013-5-10,93.0,72.2,59.0,71.0,60.2,-99.9,96,75,40,0.00,40.00,6,2,13,0.00
2013-5-11,91.0,75.7,63.0,74.0,67.0,62.0,96,78,47,0.00,40.00,7,2,18,0.00
2013-5-12,89.0,75.3,65.0,74.0,67.2,-99.9,96,80,55,0.00,40.00,7,2,16,0.04
2013-5-13,90.0,75.3,64.0,69.0,65.8,63.0,96,76,44,0.00,40.00,4,2,11,0.04
2013-5-14,87.0,72.3,60.0,64.0,56.2,52.0,88,60,32,0.00,40.00,5,3,13,0.00
2013-5-15,86.0,68.8,53.0,60.0,56.3,52.0,96,70,36,0.00,40.00,5,2,13,0.00
2013-5-16,87.0,63.2,55.0,64.0,37.9,-99.9,96,70,37,0.00,40.00,4,1,9,0.00
2013-5-17,92.0,73.7,59.0,66.0,54.6,-99.9,96,68,34,0.00,40.00,4,2,10,0.00
2013-5-18,92.0,75.0,61.0,72.0,66.4,60.0,96,78,39,0.00,40.00,4,1,14,0.30
2013-5-19,90.0,75.4,64.0,72.0,67.7,63.0,96,80,48,0.00,40.00,4,1,12,0.84
2013-5-20,92.0,73.6,67.0,74.0,68.5,66.0,97,87,44,0.00,40.00,5,1,17,0.79
2013-5-21,91.0,73.6,66.0,76.0,68.9,65.0,97,87,48,0.00,40.00,7,2,18,1.00
2013-5-22,91.0,75.9,65.0,75.0,67.7,64.0,97,79,49,0.00,40.00,5,2,15,0.40
2013-5-23,91.0,76.8,64.0,73.0,66.6,63.0,97,74,45,0.00,40.00,5,2,14,0.00
2013-5-24,95.0,77.9,65.0,71.0,65.7,60.0,96,72,31,0.00,40.00,6,2,14,0.15
2013-5-25,92.0,76.6,64.0,72.0,65.8,63.0,96,73,42,0.00,40.00,5,2,15,0.15
2013-5-26,88.0,75.0,60.0,66.0,62.8,59.0,95,69,41,0.00,40.00,5,2,16,0.00
2013-5-27,88.0,75.0,62.0,69.0,65.9,61.0,96,75,53,0.00,40.00,6,3,14,0.00
2013-5-28,85.0,75.4,71.0,74.0,70.2,68.0,95,85,59,0.00,40.00,6,2,19,0.33
2013-5-29,82.0,73.0,69.0,74.0,70.5,68.0,96,92,75,0.00,40.00,5,2,13,1.14
2013-5-30,89.0,75.7,69.0,74.0,70.6,68.0,96,85,59,0.00,40.00,5,3,16,0.27
2013-5-31,88.0,76.5,69.0,78.0,71.8,68.0,96,87,57,0.00,40.00,5,2,13,0.33
2013-6-1,90.0,76.9,71.0,76.0,72.5,69.0,97,88,55,0.00,40.00,8,2,16,1.64
2013-6-2,92.0,77.9,68.0,76.0,69.3,-99.9,97,81,51,0.00,40.00,7,2,15,0.80
2013-6-3,84.0,76.9,71.0,74.0,72.1,69.0,96,86,69,0.00,40.00,4,2,10,0.00
2013-6-4,82.0,75.5,71.0,76.0,72.6,69.0,96,91,78,0.00,40.00,3,1,15,0.10
2013-6-5,79.0,76.5,74.0,77.0,74.5,72.0,96,94,90,0.00,40.00,4,2,12,0.33
2013-6-6,86.0,75.8,71.0,78.0,72.8,69.0,96,91,75,0.00,40.00,9,4,25,1.15
2013-6-7,86.0,78.0,71.0,76.0,73.7,69.0,96,87,69,0.00,40.00,7,2,15,1.14
2013-6-8,93.0,80.3,74.0,77.0,73.7,71.0,96,82,49,0.00,40.00,6,2,14,0.01
2013-6-9,93.0,81.7,72.0,76.0,71.9,68.0,96,75,45,0.00,40.00,5,2,13,0.00
2013-6-10,94.0,81.9,72.0,76.0,73.1,70.0,96,77,46,0.00,40.00,4,2,13,0.00
2013-6-11,94.0,78.6,71.0,77.0,72.4,69.0,96,84,48,0.00,40.00,5,1,16,0.60
2013-6-12,91.0,76.0,70.0,80.0,72.0,69.0,96,89,56,0.00,40.00,6,1,14,0.12
2013-6-13,92.0,74.7,67.0,76.0,69.4,65.0,96,85,51,0.00,40.00,5,1,14,0.01
2013-6-14,92.0,78.8,68.0,75.0,69.9,67.0,96,77,50,0.00,40.00,6,2,13,0.00
2013-6-15,93.0,80.1,67.0,75.0,71.0,66.0,96,77,46,0.00,40.00,5,2,10,0.00
2013-6-16,95.0,81.8,70.0,76.0,72.3,68.0,96,76,41,0.00,40.00,5,2,10,0.39
2013-6-17,97.0,80.0,71.0,76.0,72.2,69.0,96,80,40,0.00,40.00,4,1,15,0.86
2013-6-18,96.0,80.1,69.0,78.0,72.0,68.0,96,78,46,0.00,40.00,6,2,15,0.86
2013-6-19,97.0,78.9,70.0,77.0,72.4,68.0,96,83,42,0.00,40.00,5,1,14,0.65
2013-6-20,93.0,78.4,69.0,76.0,70.8,68.0,96,81,48,0.00,40.00,5,2,12,0.47
2013-6-22,94.0,85.4,74.0,74.0,71.4,69.0,91,66,46,0.00,40.00,4,2,10,0.03
2013-6-23,90.0,77.3,70.0,78.0,72.1,68.0,96,85,61,0.00,40.00,4,1,12,0.04
2013-6-24,92.0,80.2,70.0,75.0,71.7,69.0,96,78,47,0.00,40.00,6,2,14,0.01
2013-6-25,94.0,78.0,70.0,75.0,71.9,69.0,96,84,49,0.00,40.00,4,2,17,0.11
2013-6-26,90.0,76.8,71.0,76.0,72.4,70.0,96,88,55,0.00,40.00,4,2,11,0.63
2013-6-27,92.0,76.3,69.0,77.0,71.8,68.0,96,88,57,0.00,40.00,3,1,9,1.08
2013-6-28,91.0,78.4,69.0,77.0,72.3,68.0,96,83,54,0.00,40.00,6,1,15,0.43
2013-6-29,92.0,80.6,71.0,76.0,72.2,70.0,96,78,53,0.00,40.00,6,2,16,0.42
2013-6-30,90.0,78.8,73.0,78.0,73.7,71.0,96,86,59,0.00,40.00,7,2,18,0.46
2013-7-1,89.0,76.0,72.0,75.0,72.4,70.0,96,90,64,0.00,40.00,8,2,21,4.50
2013-7-2,89.0,76.8,72.0,77.0,73.1,70.0,96,89,66,0.00,40.00,4,2,17,1.14
2013-7-3,90.0,76.2,71.0,77.0,72.4,69.0,96,89,59,0.00,40.00,8,2,19,2.15
2013-7-4,92.0,79.3,70.0,77.0,72.6,69.0,96,82,49,0.00,40.00,5,2,15,0.65
2013-7-5,88.0,76.9,71.0,75.0,72.4,69.0,96,87,63,0.00,40.00,5,2,21,1.17
2013-7-6,92.0,80.2,73.0,78.0,72.8,69.0,96,81,47,0.00,40.00,5,2,13,0.09
2013-7-7,91.0,80.3,73.0,76.0,72.8,70.0,96,80,51,0.00,40.00,6,2,17,0.06
2013-7-8,93.0,79.7,72.0,76.0,71.4,66.0,96,79,43,0.00,40.00,5,2,14,0.01
2013-7-9,87.0,77.4,71.0,76.0,71.9,69.0,96,85,56,0.00,40.00,4,1,13,0.53
2013-7-10,91.0,74.8,70.0,74.0,67.3,-99.9,96,83,48,0.00,40.00,3,1,10,0.71
2013-7-11,90.0,79.1,71.0,77.0,72.1,70.0,96,81,55,0.00,40.00,4,2,11,0.62
2013-7-12,90.0,77.4,71.0,75.0,71.8,69.0,96,85,57,0.00,40.00,4,1,13,0.83
2013-7-13,81.0,74.2,71.0,76.0,71.7,70.0,96,92,74,0.00,40.00,6,2,16,1.18
2013-7-14,85.0,76.1,72.0,74.0,72.0,70.0,96,88,68,0.00,40.00,8,2,23,0.25
2013-7-15,89.0,77.8,71.0,73.0,70.7,69.0,96,81,55,0.00,40.00,5,2,12,0.01
2013-7-16,88.0,82.5,74.0,72.0,69.5,68.0,92,66,56,0.00,40.00,8,4,18,0.00
2013-7-17,87.0,77.2,71.0,72.0,70.3,68.0,95,80,59,0.00,40.00,6,3,15,0.05
2013-7-18,84.0,73.7,70.0,75.0,71.2,68.0,96,92,74,0.00,40.00,5,1,16,2.68
2013-7-19,91.0,78.9,70.0,76.0,72.2,69.0,96,82,52,0.00,40.00,4,2,10,0.04
2013-7-20,90.0,76.5,74.0,79.0,72.1,-99.9,96,89,61,0.00,40.00,4,1,11,0.43
2013-7-21,92.0,80.8,73.0,80.0,74.4,72.0,96,82,56,0.00,40.00,5,2,11,0.17
2013-7-22,94.0,79.7,72.0,77.0,73.4,71.0,96,83,49,0.00,40.00,4,1,11,0.00
2013-7-23,94.0,81.5,72.0,76.0,72.2,69.0,96,77,44,0.00,40.00,4,2,12,0.00
2013-7-24,91.0,80.6,71.0,76.0,71.2,68.0,96,76,49,0.00,40.00,6,2,15,0.00
2013-7-25,92.0,80.7,71.0,75.0,72.5,70.0,96,79,55,0.00,40.00,5,2,15,0.00
2013-7-26,94.0,81.0,73.0,76.0,73.1,71.0,96,79,50,0.00,40.00,6,2,18,0.00
2013-7-27,91.0,79.5,74.0,75.0,73.3,72.0,95,83,56,0.00,40.00,3,1,10,0.04
2013-7-28,93.0,80.1,71.0,76.0,71.4,67.0,96,78,46,0.00,40.00,5,1,10,0.04
2013-7-29,94.0,78.2,71.0,76.0,72.3,70.0,96,84,50,0.00,40.00,4,1,10,0.01
2013-7-30,89.0,78.1,73.0,78.0,73.8,71.0,96,87,61,0.00,40.00,4,1,16,0.27
2013-7-31,91.0,78.1,72.0,79.0,73.6,71.0,96,87,58,0.00,40.00,5,1,12,0.32
2013-8-1,96.0,77.2,72.0,77.0,71.9,67.0,96,86,41,0.00,40.00,5,1,14,0.17
2013-8-2,91.0,78.2,70.0,78.0,72.9,69.0,96,86,52,0.00,40.00,4,1,10,0.41
2013-8-3,92.0,77.6,74.0,78.0,74.4,71.0,96,91,58,0.00,40.00,5,1,10,1.13
2013-8-4,91.0,81.2,74.0,78.0,75.6,73.0,96,84,61,0.00,40.00,4,1,11,0.04
2013-8-5,88.0,79.2,74.0,80.0,75.5,73.0,96,89,69,0.00,40.00,4,1,11,0.14
2013-8-6,93.0,80.0,73.0,79.0,74.3,72.0,96,85,53,0.00,40.00,4,1,12,0.01
2013-8-7,93.0,79.3,73.0,79.0,74.8,72.0,100,88,51,0.00,40.00,3,1,18,1.20
2013-8-8,94.0,81.7,73.0,78.0,73.7,70.0,100,80,48,0.00,40.00,5,2,13,1.20
2013-8-9,90.0,77.6,73.0,78.0,73.1,72.0,99,89,56,0.00,40.00,5,2,15,1.04
2013-8-10,94.0,82.3,72.0,78.0,72.4,70.0,99,76,47,0.00,40.00,5,2,12,0.50
2013-8-11,95.0,83.1,74.0,77.0,73.6,68.0,98,76,45,0.00,40.00,4,2,11,0.01
2013-8-12,94.0,81.0,71.0,75.0,72.6,69.0,98,79,48,0.00,40.00,5,2,13,0.00
2013-8-13,96.0,80.1,73.0,77.0,71.7,-99.9,98,81,44,0.00,40.00,4,1,11,0.30
2013-8-14,94.0,79.0,72.0,79.0,71.1,-99.9,98,83,47,0.00,40.00,5,1,17,0.83
2013-8-15,87.0,74.9,73.0,77.0,66.9,-99.9,98,86,70,0.00,40.00,3,0,8,0.98
2013-8-16,95.0,80.4,74.0,78.0,71.3,-99.9,98,81,49,0.00,40.00,4,1,9,0.01
2013-8-17,93.0,81.1,74.0,81.0,75.0,71.0,98,84,49,0.00,40.00,4,1,11,0.01
2013-8-18,94.0,80.8,74.0,78.0,73.3,-99.9,98,82,53,0.00,40.00,5,2,13,0.35
2013-8-19,95.0,76.4,73.0,78.0,68.3,-99.9,97,85,50,0.00,40.00,5,2,16,0.97
2013-8-20,91.0,79.6,72.0,77.0,74.0,71.0,98,85,55,0.00,40.00,5,1,11,0.01
2013-8-21,93.0,81.1,75.0,79.0,75.2,73.0,97,84,57,0.00,40.00,5,2,14,0.05
2013-8-22,96.0,81.7,74.0,78.0,74.8,72.0,97,82,49,0.00,40.00,5,2,12,0.52
2013-8-23,92.0,77.9,73.0,80.0,74.1,72.0,97,90,52,0.00,40.00,5,1,14,1.44
2013-8-24,94.0,79.1,73.0,79.0,73.8,72.0,98,86,52,0.00,40.00,6,2,13,0.09
2013-8-25,90.0,78.9,74.0,77.0,72.8,-99.9,97,85,61,0.00,40.00,4,2,10,0.02
2013-8-26,90.0,78.1,72.0,77.0,73.3,71.0,97,86,59,0.00,40.00,6,2,13,0.63
2013-8-27,90.0,76.8,70.0,78.0,71.4,69.0,97,86,53,0.00,40.00,5,1,13,0.70
2013-8-28,88.0,78.7,72.0,74.0,71.5,69.0,97,81,54,0.00,40.00,4,2,11,0.98
2013-8-29,92.0,79.9,72.0,75.0,72.8,71.0,97,81,52,0.00,40.00,3,1,7,0.06
2013-8-30,91.0,80.4,71.0,80.0,72.6,69.0,97,80,51,0.00,40.00,4,1,11,0.01
2013-8-31,92.0,79.4,72.0,75.0,72.2,70.0,97,81,53,0.00,40.00,6,2,12,0.00
2013-9-1,93.0,77.1,72.0,77.0,70.8,-99.9,97,85,52,0.00,40.00,5,1,13,0.03
2013-9-2,89.0,75.5,71.0,81.0,72.5,70.0,97,91,68,0.00,40.00,4,1,11,0.68
2013-9-3,94.0,79.7,70.0,79.0,72.1,69.0,97,81,46,0.00,40.00,4,1,8,0.01
2013-9-4,92.0,78.4,74.0,78.0,75.4,73.0,97,92,62,0.00,40.00,4,1,15,0.20
2013-9-5,93.0,80.4,75.0,78.0,75.5,72.0,98,87,50,0.00,40.00,4,1,13,0.07
2013-9-6,96.0,81.6,72.0,79.0,73.4,70.0,98,80,45,0.00,40.00,4,2,12,1.54
2013-9-7,89.0,78.1,72.0,76.0,73.0,69.0,97,85,60,0.00,40.00,3,2,13,1.66
2013-9-8,91.0,76.8,70.0,74.0,70.1,-99.9,97,84,52,0.00,40.00,4,2,13,0.65
2013-9-9,89.0,78.7,72.0,77.0,73.1,71.0,97,85,57,0.00,40.00,5,1,14,0.68
2013-9-10,90.0,79.3,72.0,75.0,73.0,71.0,97,83,56,0.00,40.00,6,2,20,0.32
2013-9-11,87.0,77.6,73.0,76.0,73.5,72.0,97,88,65,0.00,40.00,6,1,21,0.57
2013-9-12,87.0,78.6,72.0,77.0,73.7,71.0,97,86,63,0.00,40.00,5,1,14,1.76
2013-9-13,94.0,80.0,70.0,76.0,71.5,69.0,97,79,44,0.00,40.00,4,1,11,1.76
2013-9-14,93.0,81.2,71.0,77.0,72.6,70.0,97,78,48,0.00,40.00,4,1,10,0.00
2013-9-15,79.0,73.9,73.0,76.0,71.0,-99.9,97,94,92,0.00,40.00,2,1,9,0.59
2013-9-16,88.0,78.0,74.0,77.0,74.0,73.0,97,88,63,0.00,40.00,5,2,15,0.14
2013-9-17,87.0,76.3,74.0,76.0,73.3,70.0,97,91,64,0.00,40.00,6,1,15,0.11
2013-9-18,75.0,74.1,73.0,74.0,73.1,72.0,97,97,97,0.00,40.00,2,1,6,2.12
2013-9-19,92.0,78.6,70.0,76.0,72.5,69.0,97,84,52,0.00,40.00,4,1,13,0.22
2013-9-20,89.0,79.7,72.0,74.0,70.8,68.0,97,77,51,0.00,40.00,5,2,11,0.00
2013-9-21,92.0,78.5,70.0,74.0,70.8,69.0,97,80,48,0.00,40.00,4,1,11,0.00
2013-9-22,91.0,78.8,70.0,78.0,70.8,-99.9,97,81,55,0.00,40.00,5,2,13,0.00
2013-9-23,87.0,79.1,74.0,78.0,75.6,73.0,97,90,72,0.00,40.00,4,1,14,0.38
2013-9-24,89.0,79.1,73.0,79.0,74.4,70.0,97,87,64,0.00,40.00,7,2,19,0.17
2013-9-25,86.0,76.4,71.0,76.0,72.6,70.0,97,89,68,0.00,40.00,6,2,13,0.05
2013-9-26,88.0,77.8,72.0,82.0,74.9,71.0,97,92,72,0.00,40.00,6,2,17,0.57
2013-9-27,89.0,78.3,71.0,75.0,70.8,67.0,97,81,50,0.00,40.00,4,2,12,0.08
2013-9-28,92.0,78.1,70.0,73.0,70.6,69.0,97,81,49,0.00,40.00,4,2,13,0.03
2013-9-29,88.0,76.8,69.0,74.0,68.6,-99.9,97,80,55,0.00,40.00,4,1,10,0.04
2013-9-30,93.0,77.9,68.0,75.0,70.0,67.0,97,80,46,0.00,40.00,3,1,9,1.33
2013-10-1,81.0,77.4,72.0,71.0,69.3,69.0,96,77,68,0.00,40.00,3,2,8,1.08
2013-10-2,89.0,78.3,72.0,76.0,72.1,70.0,95,82,58,0.00,40.00,6,2,16,0.08
2013-10-3,89.0,77.4,72.0,76.0,73.1,71.0,96,87,59,0.00,40.00,4,1,12,0.71
2013-10-4,89.0,78.0,72.0,76.0,71.8,69.0,97,83,52,0.00,40.00,4,1,10,0.04
2013-10-5,91.0,78.8,69.0,73.0,69.1,63.0,97,76,39,0.00,40.00,3,1,8,0.00
2013-10-6,91.0,77.4,70.0,75.0,70.6,69.0,97,82,49,0.00,40.00,4,1,9,0.01
2013-10-7,88.0,77.5,70.0,78.0,72.6,69.0,97,86,61,0.00,40.00,8,2,15,0.28
2013-10-8,89.0,77.5,68.0,78.0,70.6,67.0,97,82,53,0.00,40.00,6,2,14,0.21
2013-10-9,89.0,76.9,68.0,75.0,70.3,67.0,97,82,51,0.00,40.00,5,2,11,0.01
2013-10-10,90.0,78.3,69.0,71.0,68.8,66.0,95,75,48,0.00,40.00,5,2,13,0.00
2013-10-11,90.0,75.9,65.0,71.0,65.6,61.0,97,75,38,0.00,40.00,5,1,12,0.00
2013-10-12,91.0,75.5,63.0,72.0,65.7,62.0,97,76,40,0.00,40.00,4,1,9,0.00
2013-10-13,87.0,75.9,69.0,72.0,65.3,-99.9,97,74,44,0.00,40.00,5,2,10,0.00
2013-10-14,88.0,74.4,65.0,69.0,65.2,63.0,97,76,44,0.00,40.00,5,2,12,0.00
2013-10-15,89.0,75.4,66.0,70.0,66.5,62.0,97,78,42,0.00,40.00,4,2,10,0.00
2013-10-16,91.0,75.8,65.0,72.0,66.9,64.0,97,78,41,0.00,40.00,4,1,9,0.00
2013-10-17,89.0,76.0,68.0,74.0,69.7,67.0,97,83,49,0.00,40.00,4,1,9,0.00
2013-10-18,94.0,78.0,66.0,74.0,68.9,65.0,97,78,40,0.00,40.00,4,1,10,0.00
2013-10-19,92.0,78.1,68.0,75.0,70.6,67.0,97,81,47,0.00,40.00,5,2,11,0.00
2013-10-20,92.0,78.6,70.0,77.0,69.4,-99.9,97,79,47,0.00,40.00,4,1,10,0.00
2013-10-21,90.0,78.1,69.0,76.0,72.4,68.0,97,84,57,0.00,40.00,5,1,13,0.00
2013-10-22,91.0,78.9,70.0,76.0,71.7,69.0,97,82,52,0.00,40.00,7,2,14,0.00
2013-10-23,87.0,76.3,70.0,76.0,70.1,65.0,97,83,57,0.00,40.00,6,2,12,0.04
2013-10-24,76.0,70.7,67.0,67.0,58.7,52.0,87,66,56,0.00,40.00,5,3,12,0.04
2013-10-25,84.0,71.5,63.0,63.0,60.8,58.0,89,71,46,0.00,40.00,6,3,16,0.00
2013-10-26,86.0,70.6,62.0,62.0,60.3,58.0,95,73,41,0.00,40.00,5,2,11,0.00
2013-10-27,85.0,69.3,60.0,63.0,58.3,-99.9,97,74,39,0.00,40.00,5,2,12,0.00
2013-10-28,87.0,70.6,60.0,67.0,60.6,-99.9,97,77,42,0.00,40.00,5,2,12,0.00
2013-10-29,89.0,72.8,61.0,67.0,64.0,60.0,97,77,45,0.00,40.00,6,2,13,0.00
2013-10-30,87.0,73.2,63.0,69.0,63.2,58.0,97,75,38,0.00,40.00,6,2,16,0.00
2013-10-31,89.0,73.2,63.0,69.0,64.8,62.0,97,79,42,0.00,40.00,5,1,13,0.00
2013-11-1,89.0,73.8,64.0,72.0,65.7,63.0,97,80,42,0.00,40.00,6,2,12,0.00
2013-11-2,87.0,74.0,65.0,74.0,66.9,61.0,97,81,51,0.00,40.00,7,2,14,0.00
2013-11-3,82.0,70.6,64.0,63.0,53.9,-99.9,81,59,33,0.00,40.00,7,4,16,0.00
2013-11-4,82.0,69.9,59.0,65.0,59.1,53.0,87,70,49,0.00,40.00,7,4,17,0.00
2013-11-5,84.0,74.4,67.0,69.0,66.1,64.0,92,77,54,0.00,40.00,8,4,20,0.01
2013-11-6,89.0,75.5,67.0,69.0,67.6,66.0,96,78,49,0.00,40.00,6,2,16,0.01
2013-11-7,87.0,73.2,65.0,71.0,66.4,64.0,97,82,49,0.00,40.00,4,2,9,0.00
2013-11-8,84.0,73.3,64.0,69.0,65.6,63.0,97,79,59,0.00,40.00,7,3,16,0.00
2013-11-9,79.0,72.8,69.0,72.0,67.1,-99.9,95,85,73,0.00,40.00,7,3,18,0.00
2013-11-10,84.0,75.9,70.0,70.0,68.3,66.0,90,78,59,0.00,40.00,5,3,13,0.00
2013-11-11,87.0,74.9,66.0,69.0,67.1,65.0,96,78,51,0.00,40.00,6,2,13,0.00
2013-11-12,84.0,73.4,64.0,70.0,65.9,63.0,97,79,51,0.00,40.00,4,2,9,0.00
2013-11-13,73.0,68.1,60.0,66.0,58.4,52.0,88,72,63,0.00,40.00,7,5,19,0.00
2013-11-14,80.0,66.1,55.0,58.0,54.8,52.0,93,70,42,0.00,40.00,7,3,16,0.00
2013-11-15,82.0,72.1,63.0,68.0,63.2,58.0,89,75,55,0.00,40.00,5,2,14,0.00
2013-11-16,81.0,73.0,68.0,70.0,64.6,-99.9,94,78,61,0.00,40.00,4,2,11,0.01
2013-11-17,89.0,74.7,65.0,71.0,66.4,64.0,97,79,46,0.00,40.00,5,2,16,0.01
2013-11-18,88.0,73.8,64.0,72.0,67.1,63.0,97,82,50,0.00,40.00,3,1,7,0.00
2013-11-19,87.0,74.5,66.0,71.0,67.6,65.0,97,81,50,0.00,40.00,4,1,8,0.00
2013-11-20,86.0,73.2,65.0,73.0,68.1,64.0,97,86,56,0.00,40.00,2,1,9,0.00
2013-11-21,86.0,75.3,67.0,73.0,68.9,66.0,97,82,56,0.00,40.00,3,1,9,0.00
2013-11-22,84.0,74.1,69.0,70.0,68.2,67.0,96,83,60,0.00,40.00,5,2,15,0.00
2013-11-23,87.0,72.6,65.0,71.0,66.8,-99.9,100,86,58,0.00,40.00,6,2,15,2.61
2013-11-24,81.0,70.8,64.0,71.0,66.2,64.0,100,87,61,0.00,40.00,6,3,17,2.61
2013-11-25,79.0,71.4,66.0,67.0,62.8,61.0,89,75,57,0.00,40.00,7,5,19,0.00
2013-11-26,87.0,75.5,69.0,74.0,70.9,67.0,100,87,57,0.00,40.00,8,3,20,0.70
2013-11-27,78.0,70.3,57.0,73.0,62.8,51.0,100,80,48,0.00,40.00,6,4,17,0.95
2013-11-28,73.0,57.5,43.0,56.0,48.4,39.0,90,74,49,0.00,40.00,6,4,18,0.03
2013-11-29,79.0,64.9,54.0,62.0,56.9,53.0,99,78,51,0.00,40.00,7,4,18,0.00
2013-11-30,79.0,65.5,57.0,67.0,60.0,-99.9,100,85,61,0.00,40.00,6,4,16,0.00
2013-12-1,78.0,66.8,60.0,67.0,63.9,60.0,100,91,65,0.00,40.00,5,3,11,0.00
2013-12-2,80.0,67.4,61.0,65.0,62.7,59.0,100,87,49,0.00,40.00,4,2,9,0.00
2013-12-3,82.0,67.3,57.0,66.0,62.0,57.0,100,86,53,0.00,40.00,6,1,14,0.00
2013-12-4,84.0,70.1,60.0,71.0,65.2,60.0,100,87,55,0.00,40.00,5,1,12,0.00
2013-12-5,86.0,70.7,60.0,70.0,64.7,60.0,100,85,49,0.00,40.00,4,2,11,0.00
2013-12-6,88.0,72.2,62.0,73.0,66.4,62.0,100,85,51,0.00,40.00,5,2,13,0.00
2013-12-7,87.0,70.4,59.0,71.0,62.8,-99.9,100,82,47,0.00,40.00,5,2,12,0.00
2013-12-8,88.0,72.4,63.0,71.0,65.9,63.0,100,83,47,0.00,40.00,6,2,12,0.00
2013-12-9,88.0,72.3,63.0,72.0,65.4,61.0,100,83,40,0.00,40.00,5,2,13,0.00
2013-12-10,88.0,72.2,62.0,72.0,66.3,62.0,100,85,48,0.00,40.00,4,1,10,0.00
2013-12-11,86.0,72.7,63.0,72.0,68.3,63.0,100,88,56,0.00,40.00,5,2,12,0.15
2013-12-12,72.0,67.0,58.0,70.0,64.0,48.0,100,90,67,0.00,40.00,5,3,12,0.15
2013-12-13,82.0,66.1,52.0,64.0,57.6,47.0,98,75,54,0.00,40.00,5,3,14,0.01
2013-12-14,87.0,72.7,64.0,71.0,65.9,-99.9,100,84,52,0.00,40.00,6,3,14,0.00
2013-12-15,78.0,71.3,67.0,76.0,70.4,66.0,100,97,83,0.00,40.00,4,2,15,0.11
2013-12-16,76.0,65.8,57.0,66.0,58.8,55.0,94,79,56,0.00,40.00,5,3,13,0.03
2013-12-17,79.0,62.5,50.0,63.0,55.8,45.0,98,81,54,0.00,40.00,5,3,12,0.00
2013-12-18,76.0,61.4,50.0,57.0,49.1,38.0,100,72,25,0.00,40.00,6,3,15,0.00
2013-12-19,81.0,62.1,49.0,59.0,54.7,48.0,100,81,43,0.00,40.00,6,2,14,0.00
2013-12-20,84.0,68.8,57.0,68.0,63.7,57.0,100,86,58,0.00,40.00,6,2,16,0.00
2013-12-21,88.0,73.0,64.0,72.0,66.1,-99.9,100,84,52,0.00,40.00,5,2,17,0.00
2013-12-22,89.0,74.4,65.0,73.0,68.0,65.0,100,84,45,0.00,40.00,6,2,18,0.00
2013-12-23,87.0,73.3,65.0,74.0,68.2,65.0,100,87,53,0.00,40.00,7,2,14,0.00
2013-12-24,78.0,67.3,59.0,69.0,61.8,41.0,100,84,48,0.00,40.00,5,3,16,0.00
2013-12-25,82.0,67.8,57.0,64.0,58.0,49.0,86,72,54,0.00,40.00,6,4,14,0.00
2013-12-26,82.0,70.2,62.0,69.0,65.6,61.0,100,86,61,0.00,40.00,5,3,12,0.00
2013-12-27,84.0,72.9,66.0,69.0,67.2,66.0,100,84,58,0.00,40.00,6,4,15,0.00
2013-12-28,84.0,72.3,67.0,72.0,67.0,-99.9,100,87,63,0.00,40.00,6,3,16,0.00
2013-12-29,79.0,73.4,69.0,76.0,72.0,69.0,100,96,83,0.00,40.00,7,3,20,0.04
2013-12-30,79.0,70.6,66.0,71.0,64.5,61.0,100,82,59,0.00,40.00,4,2,11,0.01
2013-12-31,79.0,69.0,63.0,63.0,59.4,56.0,91,73,48,0.00,40.00,7,4,16,0.00
2014-1-1,86.0,71.2,63.0,75.0,66.5,61.0,100,87,57,0.00,40.00,5,2,14,0.16
2014-1-2,84.0,71.3,61.0,74.0,67.1,61.0,100,89,57,0.00,40.00,7,3,17,0.06